createdAt,value
2022-09-14T00:01:36.466Z,14.23
2022-09-14T00:04:08.676Z,14.20
2022-09-14T00:06:37.415Z,14.70
2022-09-14T00:09:07.718Z,13.73
2022-09-14T00:11:37.678Z,10.82
2022-09-14T00:14:08.781Z,12.05
2022-09-14T00:16:41.704Z,13.95
2022-09-14T00:19:17.593Z,11.55
2022-09-14T00:21:46.347Z,10.77
2022-09-14T00:24:14.833Z,11.63
2022-09-14T00:26:43.429Z,12.45
2022-09-14T00:29:13.644Z,12.68
2022-09-14T00:31:42.539Z,14.82
2022-09-14T00:34:14.614Z,13.45
2022-09-14T00:36:46.521Z,15.60
2022-09-14T00:39:16.314Z,12.77
2022-09-14T00:41:48.612Z,14.30
2022-09-14T00:44:55.193Z,11.35
2022-09-14T00:47:26.146Z,14.60
2022-09-14T00:49:55.402Z,11.82
2022-09-14T00:52:27.177Z,14.20
2022-09-14T00:54:59.015Z,12.38
2022-09-14T00:57:30.574Z,12.43
2022-09-14T00:59:59.703Z,12.75
2022-09-14T01:02:30.153Z,12.27
2022-09-14T01:04:59.116Z,14.30
2022-09-14T01:07:43.285Z,13.65
2022-09-14T01:10:27.853Z,13.52
2022-09-14T01:13:09.822Z,12.98
2022-09-14T01:15:48.243Z,11.77
2022-09-14T01:18:24.323Z,11.60
2022-09-14T01:20:58.338Z,15.15
2022-09-14T01:23:34.957Z,16.73
2022-09-14T01:26:21.287Z,14.10
2022-09-14T01:28:56.024Z,14.38
2022-09-14T01:31:30.675Z,15.55
2022-09-14T01:34:07.042Z,14.45
2022-09-14T01:36:38.223Z,12.15
2022-09-14T01:39:08.137Z,15.75
2022-09-14T01:41:38.504Z,14.10
2022-09-14T01:44:13.770Z,14.88
2022-09-14T01:46:47.603Z,14.25
2022-09-14T01:49:20.639Z,12.30
2022-09-14T01:51:51.695Z,14.52
2022-09-14T01:56:57.275Z,15.02
2022-09-14T01:59:32.002Z,15.73
2022-09-14T02:02:06.814Z,20.13
2022-09-14T02:04:40.619Z,15.85
2022-09-14T02:07:09.609Z,17.55
2022-09-14T02:09:39.121Z,14.98
2022-09-14T02:12:08.554Z,12.30
2022-09-14T02:14:38.590Z,15.00
2022-09-14T02:17:08.462Z,19.80
2022-09-14T02:19:42.012Z,11.68
2022-09-14T02:22:10.702Z,13.73
2022-09-14T02:24:39.312Z,12.95
2022-09-14T02:27:08.741Z,14.65
2022-09-14T02:29:39.101Z,14.75
2022-09-14T02:32:20.683Z,15.60
2022-09-14T02:34:59.466Z,13.43
2022-09-14T02:37:38.896Z,14.07
2022-09-14T02:40:14.711Z,15.02
2022-09-14T02:42:54.395Z,18.77
2022-09-14T02:45:31.810Z,14.07
2022-09-14T02:48:08.786Z,14.20
2022-09-14T02:50:44.438Z,17.10
2022-09-14T02:53:19.314Z,13.90
2022-09-14T02:55:52.758Z,14.35
2022-09-14T02:58:21.974Z,14.85
2022-09-14T03:00:52.853Z,15.48
2022-09-14T03:05:51.123Z,12.80
2022-09-14T03:08:19.965Z,14.07
2022-09-14T03:10:49.124Z,15.98
2022-09-14T03:13:17.945Z,15.18
2022-09-14T03:15:47.090Z,18.05
2022-09-14T03:18:17.540Z,15.88
2022-09-14T03:20:46.377Z,14.95
2022-09-14T03:23:15.470Z,15.73
2022-09-14T03:25:45.516Z,15.02
2022-09-14T03:28:14.479Z,13.30
2022-09-14T03:30:43.459Z,12.60
2022-09-14T03:33:12.398Z,15.00
2022-09-14T03:35:42.743Z,11.90
2022-09-14T03:38:11.522Z,13.95
2022-09-14T03:40:40.840Z,12.13
2022-09-14T03:43:09.816Z,11.27
2022-09-14T03:45:38.817Z,13.48
2022-09-14T03:48:07.590Z,13.05
2022-09-14T03:50:36.241Z,15.10
2022-09-14T03:53:06.464Z,12.13
2022-09-14T03:55:35.488Z,13.17
2022-09-14T03:58:04.269Z,12.77
2022-09-14T04:00:32.961Z,14.15
2022-09-14T04:03:02.255Z,15.73
2022-09-14T04:05:31.065Z,14.60
2022-09-14T04:07:59.919Z,14.07
2022-09-14T04:10:30.185Z,15.20
2022-09-14T04:13:02.124Z,13.00
2022-09-14T04:15:31.865Z,12.15
2022-09-14T04:18:00.539Z,14.80
2022-09-14T04:20:29.460Z,13.68
2022-09-14T04:22:58.725Z,13.80
2022-09-14T04:25:27.482Z,13.13
2022-09-14T04:28:19.139Z,11.52
2022-09-14T04:30:46.725Z,12.63
2022-09-14T04:33:15.338Z,13.38
2022-09-14T04:35:45.022Z,12.07
2022-09-14T04:38:13.686Z,13.98
2022-09-14T04:40:43.223Z,10.10
2022-09-14T04:43:13.271Z,10.95
2022-09-14T04:45:42.218Z,12.37
2022-09-14T04:48:10.931Z,12.07
2022-09-14T04:50:39.618Z,12.50
2022-09-14T04:53:08.237Z,13.32
2022-09-14T04:55:37.187Z,10.52
2022-09-14T04:58:06.345Z,12.25
2022-09-14T05:00:37.829Z,12.18
2022-09-14T05:03:06.916Z,14.05
2022-09-14T05:05:41.899Z,12.40
2022-09-14T05:08:13.019Z,11.00
2022-09-14T05:10:41.609Z,14.65
2022-09-14T05:13:10.418Z,12.02
2022-09-14T05:15:40.548Z,10.48
2022-09-14T05:18:09.245Z,10.50
2022-09-14T05:20:39.185Z,12.90
2022-09-14T05:23:08.430Z,13.75
2022-09-14T05:25:37.166Z,11.52
2022-09-14T05:28:06.149Z,16.15
2022-09-14T05:30:34.845Z,14.15
2022-09-14T05:33:05.155Z,13.60
2022-09-14T05:35:33.907Z,12.07
2022-09-14T05:38:02.650Z,11.80
2022-09-14T05:40:31.513Z,18.25
2022-09-14T05:43:00.138Z,12.15
2022-09-14T05:45:28.787Z,16.25
2022-09-14T05:47:57.618Z,17.27
2022-09-14T05:50:27.698Z,14.63
2022-09-14T05:52:56.969Z,12.30
2022-09-14T05:55:25.752Z,13.88
2022-09-14T05:57:54.594Z,19.20
2022-09-14T06:00:23.304Z,16.92
2022-09-14T06:02:53.902Z,12.30
2022-09-14T06:05:25.514Z,15.65
2022-09-14T06:07:56.427Z,17.45
2022-09-14T06:10:25.236Z,18.25
2022-09-14T06:12:55.609Z,14.25
2022-09-14T06:15:24.900Z,15.40
2022-09-14T06:17:53.580Z,15.63
2022-09-14T06:20:22.260Z,17.05
2022-09-14T06:22:51.190Z,12.90
2022-09-14T06:25:21.479Z,14.98
2022-09-14T06:27:50.123Z,17.20
2022-09-14T06:30:18.806Z,18.05
2022-09-14T06:32:47.569Z,16.75
2022-09-14T06:35:16.447Z,15.73
2022-09-14T06:37:45.123Z,14.15
2022-09-14T06:40:13.861Z,13.48
2022-09-14T06:42:44.099Z,18.13
2022-09-14T06:45:12.780Z,16.53
2022-09-14T06:47:41.288Z,18.85
2022-09-14T06:50:10.482Z,15.13
2022-09-14T06:52:40.359Z,16.00
2022-09-14T06:55:10.024Z,12.82
2022-09-14T06:57:42.850Z,13.23
2022-09-14T07:00:14.821Z,14.73
2022-09-14T07:02:43.748Z,13.55
2022-09-14T07:05:13.099Z,16.77
2022-09-14T07:07:41.778Z,15.98
2022-09-14T07:10:12.019Z,14.45
2022-09-14T07:12:40.793Z,17.95
2022-09-14T07:15:10.638Z,14.77
2022-09-14T07:17:40.822Z,12.98
2022-09-14T07:20:11.497Z,14.43
2022-09-14T07:22:40.310Z,13.20
2022-09-14T07:25:10.439Z,14.05
2022-09-14T07:27:40.136Z,15.60
2022-09-14T07:30:11.507Z,13.98
2022-09-14T07:32:41.809Z,12.80
2022-09-14T07:35:11.816Z,14.98
2022-09-14T07:37:40.696Z,30.40
2022-09-14T07:40:11.930Z,15.55
2022-09-14T07:42:40.681Z,13.60
2022-09-14T07:45:10.341Z,19.13
2022-09-14T07:47:40.560Z,15.60
2022-09-14T07:50:11.458Z,13.23
2022-09-14T07:52:40.993Z,18.13
2022-09-14T07:55:12.680Z,13.18
2022-09-14T07:57:55.661Z,13.40
2022-09-14T08:00:25.931Z,11.20
2022-09-14T08:02:58.590Z,12.23
2022-09-14T08:05:27.883Z,15.48
2022-09-14T08:07:56.601Z,15.90
2022-09-14T08:10:26.278Z,13.52
2022-09-14T08:12:56.085Z,11.98
2022-09-14T08:15:28.399Z,15.27
2022-09-14T08:17:58.839Z,13.02
2022-09-14T08:20:27.470Z,14.03
2022-09-14T08:22:56.120Z,15.05
2022-09-14T08:25:24.820Z,14.05
2022-09-14T08:27:53.300Z,14.60
2022-09-14T08:30:21.821Z,13.25
2022-09-14T08:32:50.409Z,14.15
2022-09-14T08:35:35.436Z,13.73
2022-09-14T08:38:08.989Z,15.05
2022-09-14T08:40:45.121Z,15.27
2022-09-14T08:43:15.878Z,14.25
2022-09-14T08:45:45.537Z,14.60
2022-09-14T08:48:24.538Z,14.07
2022-09-14T08:50:55.177Z,18.05
2022-09-14T08:53:25.959Z,17.73
2022-09-14T08:56:00.598Z,17.20
2022-09-14T08:58:45.052Z,18.65
2022-09-14T09:01:23.558Z,17.13
2022-09-14T09:04:10.237Z,14.90
2022-09-14T09:06:50.428Z,18.17
2022-09-14T09:09:26.261Z,15.70
2022-09-14T09:11:57.082Z,16.95
2022-09-14T09:14:31.308Z,18.95
2022-09-14T09:17:03.223Z,19.42
2022-09-14T09:19:38.380Z,19.83
2022-09-14T09:22:15.838Z,15.85
2022-09-14T09:25:23.828Z,21.00
2022-09-14T09:27:55.550Z,18.77
2022-09-14T09:30:24.386Z,18.10
2022-09-14T09:32:53.673Z,15.63
2022-09-14T09:35:45.315Z,21.75
2022-09-14T09:38:25.183Z,26.17
2022-09-14T09:40:57.099Z,18.55
2022-09-14T09:43:47.862Z,17.95
2022-09-14T09:46:14.981Z,18.45
2022-09-14T09:48:46.629Z,16.92
2022-09-14T09:51:20.877Z,14.98
2022-09-14T09:53:56.495Z,17.15
2022-09-14T09:56:27.214Z,27.00
2022-09-14T09:58:56.577Z,35.72
2022-09-14T10:01:30.227Z,41.20
2022-09-14T10:04:17.806Z,34.30
2022-09-14T10:06:48.610Z,23.80
2022-09-14T10:09:21.093Z,25.38
2022-09-14T10:11:58.606Z,27.77
2022-09-14T10:14:31.561Z,16.35
2022-09-14T10:17:08.516Z,18.95
2022-09-14T10:19:38.119Z,14.05
2022-09-14T10:22:26.878Z,17.00
2022-09-14T10:25:02.153Z,20.70
2022-09-14T10:27:48.743Z,19.33
2022-09-14T10:30:19.965Z,20.58
2022-09-14T10:33:02.369Z,22.60
2022-09-14T10:35:42.347Z,14.68
2022-09-14T10:38:32.529Z,20.55
2022-09-14T10:41:14.957Z,15.77
2022-09-14T10:44:05.600Z,15.10
2022-09-14T10:46:44.554Z,16.92
2022-09-14T10:49:32.197Z,15.07
2022-09-14T10:52:17.350Z,16.35
2022-09-14T10:55:09.467Z,20.13
2022-09-14T10:57:50.471Z,16.30
2022-09-14T11:03:09.459Z,14.82
2022-09-14T11:05:41.608Z,15.95
2022-09-14T11:08:24.527Z,17.63
2022-09-14T11:11:10.693Z,16.63
2022-09-14T11:14:04.327Z,19.30
2022-09-14T11:17:01.989Z,24.20
2022-09-14T11:19:40.003Z,17.02
2022-09-14T11:22:22.430Z,20.70
2022-09-14T11:24:58.023Z,17.42
2022-09-14T11:27:31.769Z,20.75
2022-09-14T11:30:06.074Z,18.40
2022-09-14T11:32:40.647Z,16.30
2022-09-14T11:35:17.750Z,17.05
2022-09-14T11:37:50.928Z,20.70
2022-09-14T11:40:25.092Z,16.52
2022-09-14T11:43:01.409Z,20.02
2022-09-14T11:45:37.030Z,18.25
2022-09-14T11:48:41.402Z,18.88
2022-09-14T11:51:08.449Z,16.98
2022-09-14T11:53:38.049Z,19.88
2022-09-14T11:56:07.412Z,18.95
2022-09-14T11:58:36.669Z,18.75
2022-09-14T12:01:28.467Z,17.85
2022-09-14T12:04:18.376Z,18.10
2022-09-14T12:06:50.708Z,17.02
2022-09-14T12:09:42.499Z,21.55
2022-09-14T12:12:35.313Z,20.70
2022-09-14T12:15:05.877Z,16.50
2022-09-14T12:17:41.021Z,21.52
2022-09-14T12:20:33.161Z,22.52
2022-09-14T12:23:23.922Z,22.75
2022-09-14T12:26:39.179Z,20.00
2022-09-14T12:29:27.920Z,18.83
2022-09-14T12:32:07.308Z,17.60
2022-09-14T12:34:37.421Z,20.27
2022-09-14T12:37:31.820Z,19.63
2022-09-14T12:40:36.662Z,17.75
2022-09-14T12:43:44.608Z,18.42
2022-09-14T12:46:33.306Z,18.05
2022-09-14T12:49:03.670Z,15.95
2022-09-14T12:51:45.249Z,21.60
2022-09-14T12:54:29.127Z,19.33
2022-09-14T12:57:10.389Z,18.27
2022-09-14T12:59:46.647Z,17.20
2022-09-14T13:02:44.666Z,17.08
2022-09-14T13:05:17.371Z,17.75
2022-09-14T13:07:48.388Z,20.00
2022-09-14T13:10:22.112Z,14.63
2022-09-14T13:12:52.308Z,17.95
2022-09-14T13:15:24.607Z,17.33
2022-09-14T13:18:08.091Z,16.23
2022-09-14T13:20:37.369Z,14.93
2022-09-14T13:23:21.302Z,16.85
2022-09-14T13:25:50.938Z,14.18
2022-09-14T13:28:21.520Z,13.57
2022-09-14T13:30:56.645Z,11.52
2022-09-14T13:33:25.761Z,16.00
2022-09-14T13:35:56.657Z,12.95
2022-09-14T13:38:30.596Z,13.75
2022-09-14T13:41:08.337Z,12.25
2022-09-14T13:43:37.224Z,12.77
2022-09-14T13:46:08.266Z,14.20
2022-09-14T13:48:40.744Z,12.63
2022-09-14T13:51:10.562Z,9.48
2022-09-14T13:53:42.990Z,11.23
2022-09-14T13:56:20.037Z,11.60
2022-09-14T13:58:50.525Z,11.88
2022-09-14T14:01:28.210Z,11.85
2022-09-14T14:03:58.564Z,12.35
2022-09-14T14:06:29.927Z,12.13
2022-09-14T14:09:07.230Z,10.50
2022-09-14T14:11:39.373Z,8.50
2022-09-14T14:14:13.773Z,9.85
2022-09-14T14:16:42.833Z,13.27
2022-09-14T14:19:29.997Z,11.75
2022-09-14T14:22:20.872Z,14.63
2022-09-14T14:27:45.200Z,9.65
2022-09-14T14:30:17.286Z,10.68
2022-09-14T14:32:51.181Z,8.23
2022-09-14T14:35:22.768Z,10.38
2022-09-14T14:37:51.888Z,7.57
2022-09-14T14:40:22.230Z,11.30
2022-09-14T14:42:51.966Z,9.27
2022-09-14T14:45:22.884Z,8.70
2022-09-14T14:50:23.479Z,7.15
2022-09-14T14:52:52.975Z,8.80
2022-09-14T14:55:24.643Z,8.82
2022-09-14T14:57:53.532Z,10.77
2022-09-14T15:00:25.857Z,8.30
2022-09-14T15:02:54.632Z,10.85
2022-09-14T15:05:24.155Z,9.55
2022-09-14T15:07:55.293Z,12.35
2022-09-14T15:10:27.766Z,16.55
2022-09-14T15:12:56.768Z,10.88
2022-09-14T15:15:27.844Z,11.07
2022-09-14T15:17:56.706Z,11.98
2022-09-14T15:20:25.606Z,12.23
2022-09-14T15:22:54.587Z,10.45
2022-09-14T15:25:27.566Z,11.43
2022-09-14T15:27:56.324Z,8.05
2022-09-14T15:30:24.914Z,10.02
2022-09-14T15:32:53.594Z,10.13
2022-09-14T15:35:22.196Z,13.10
2022-09-14T15:37:51.131Z,12.63
2022-09-14T15:40:20.036Z,9.70
2022-09-14T15:42:50.596Z,12.07
2022-09-14T15:45:19.705Z,12.32
2022-09-14T15:47:48.405Z,14.25
2022-09-14T15:50:17.267Z,8.57
2022-09-14T15:52:46.146Z,13.60
2022-09-14T15:55:14.744Z,9.48
2022-09-14T15:57:43.486Z,9.55
2022-09-14T16:00:15.845Z,12.50
2022-09-14T16:02:50.746Z,9.02
2022-09-14T16:05:19.705Z,12.85
2022-09-14T16:07:48.326Z,12.25
2022-09-14T16:10:17.165Z,12.45
2022-09-14T16:12:45.885Z,11.15
2022-09-14T16:15:16.007Z,9.65
2022-09-14T16:17:44.666Z,11.38
2022-09-14T16:20:14.107Z,12.68
2022-09-14T16:22:42.745Z,10.52
2022-09-14T16:25:11.628Z,11.02
2022-09-14T16:27:40.828Z,9.48
2022-09-14T16:30:10.865Z,10.20
2022-09-14T16:32:41.309Z,11.20
2022-09-14T16:35:10.705Z,11.98
2022-09-14T16:37:39.389Z,10.20
2022-09-14T16:40:09.662Z,10.55
2022-09-14T16:42:38.266Z,11.50
2022-09-14T16:45:08.582Z,9.82
2022-09-14T16:47:38.055Z,11.07
2022-09-14T16:50:08.565Z,11.30
2022-09-14T16:52:37.076Z,13.13
2022-09-14T16:55:06.597Z,11.13
2022-09-14T16:57:35.170Z,10.35
2022-09-14T17:00:04.261Z,12.10
2022-09-14T17:02:33.212Z,13.27
2022-09-14T17:05:02.237Z,10.25
2022-09-14T17:07:32.157Z,9.00
2022-09-14T17:10:00.888Z,10.52
2022-09-14T17:12:29.405Z,12.48
2022-09-14T17:14:58.045Z,11.63
2022-09-14T17:17:26.692Z,14.10
2022-09-14T17:19:55.246Z,11.63
2022-09-14T17:22:23.735Z,9.73
2022-09-14T17:24:53.901Z,14.18
2022-09-14T17:27:22.578Z,10.97
2022-09-14T17:29:51.200Z,14.40
2022-09-14T17:32:20.019Z,10.18
2022-09-14T17:34:48.659Z,10.30
2022-09-14T17:37:17.226Z,9.80
2022-09-14T17:39:45.843Z,11.77
2022-09-14T17:42:16.101Z,12.13
2022-09-14T17:44:44.919Z,13.18
2022-09-14T17:47:13.690Z,10.52
2022-09-14T17:49:42.478Z,13.63
2022-09-14T17:52:12.298Z,9.30
2022-09-14T17:54:40.859Z,11.23
2022-09-14T17:57:09.618Z,12.13
2022-09-14T17:59:39.679Z,13.23
2022-09-14T18:02:08.381Z,10.27
2022-09-14T18:04:37.218Z,10.38
2022-09-14T18:07:06.819Z,12.20
2022-09-14T18:09:36.039Z,10.50
2022-09-14T18:12:05.281Z,7.38
2022-09-14T18:14:33.983Z,11.43
2022-09-14T18:17:04.159Z,7.30
2022-09-14T18:19:32.979Z,11.57
2022-09-14T18:22:01.543Z,11.18
2022-09-14T18:24:30.201Z,12.35
2022-09-14T18:26:58.902Z,8.98
2022-09-14T18:29:29.998Z,8.77
2022-09-14T18:31:58.809Z,9.35
2022-09-14T18:34:29.320Z,9.00
2022-09-14T18:36:58.119Z,12.00
2022-09-14T18:39:26.790Z,9.38
2022-09-14T18:41:56.601Z,7.40
2022-09-14T18:44:26.378Z,6.78
2022-09-14T18:46:55.290Z,8.48
2022-09-14T18:49:23.951Z,9.43
2022-09-14T18:51:53.959Z,7.78
2022-09-14T18:54:27.464Z,7.70
2022-09-14T18:56:56.588Z,8.15
2022-09-14T18:59:25.187Z,9.65
2022-09-14T19:01:54.026Z,7.95
2022-09-14T19:04:22.759Z,7.78
2022-09-14T19:06:51.807Z,8.32
2022-09-14T19:09:22.125Z,9.70
2022-09-14T19:11:50.882Z,8.75
2022-09-14T19:14:20.842Z,9.57
2022-09-14T19:16:50.705Z,7.82
2022-09-14T19:19:21.427Z,6.22
2022-09-14T19:21:50.205Z,9.23
2022-09-14T19:24:19.108Z,5.20
2022-09-14T19:26:51.317Z,7.45
2022-09-14T19:29:23.238Z,6.32
2022-09-14T19:31:52.841Z,7.25
2022-09-14T19:34:22.759Z,6.38
2022-09-14T19:36:53.926Z,8.47
2022-09-14T19:39:23.086Z,6.13
2022-09-14T19:41:53.723Z,8.18
2022-09-14T19:44:23.790Z,6.43
2022-09-14T19:46:52.509Z,5.03
2022-09-14T19:49:23.928Z,4.80
2022-09-14T19:51:53.397Z,5.82
2022-09-14T19:54:22.299Z,7.90
2022-09-14T19:56:52.458Z,7.40
2022-09-14T19:59:21.114Z,4.60
2022-09-14T20:01:51.268Z,5.65
2022-09-14T20:04:20.647Z,4.90
2022-09-14T20:06:49.349Z,6.82
2022-09-14T20:09:20.298Z,4.13
2022-09-14T20:14:22.358Z,6.28
2022-09-14T20:16:52.909Z,4.25
2022-09-14T20:19:23.087Z,4.70
2022-09-14T20:21:53.327Z,4.95
2022-09-14T20:24:26.088Z,6.50
2022-09-14T20:26:57.323Z,4.68
2022-09-14T20:29:30.900Z,5.80
2022-09-14T20:32:00.397Z,4.00
2022-09-14T20:34:29.518Z,5.30
2022-09-14T20:37:00.405Z,5.05
2022-09-14T20:41:58.703Z,5.18
2022-09-14T20:44:28.799Z,6.80
2022-09-14T20:46:57.638Z,9.00
2022-09-14T20:49:26.916Z,3.80
2022-09-14T20:51:57.502Z,8.73
2022-09-14T20:54:26.423Z,6.55
2022-09-14T20:56:55.114Z,9.82
2022-09-14T20:59:23.899Z,5.70
2022-09-14T21:01:54.294Z,7.88
2022-09-14T21:04:26.401Z,11.07
2022-09-14T21:06:56.230Z,7.60
2022-09-14T21:09:26.515Z,6.03
2022-09-14T21:11:55.700Z,8.80
2022-09-14T21:14:24.725Z,5.10
2022-09-14T21:16:56.984Z,10.98
2022-09-14T21:19:28.420Z,5.72
2022-09-14T21:21:57.206Z,7.25
2022-09-14T21:24:26.083Z,7.18
2022-09-14T21:26:54.898Z,5.90
2022-09-14T21:29:24.808Z,6.82
2022-09-14T21:31:55.019Z,8.20
2022-09-14T21:34:23.878Z,8.05
2022-09-14T21:36:53.637Z,6.22
2022-09-14T21:39:24.457Z,5.90
2022-09-14T21:41:58.465Z,5.20
2022-09-14T21:44:31.377Z,5.18
2022-09-14T21:47:02.203Z,8.52
2022-09-14T21:49:30.998Z,10.32
2022-09-14T21:51:59.681Z,5.90
2022-09-14T21:54:28.399Z,7.43
2022-09-14T21:56:57.265Z,6.70
2022-09-14T21:59:26.085Z,6.18
2022-09-14T22:01:54.907Z,9.02
2022-09-14T22:04:27.077Z,6.28
2022-09-14T22:06:57.366Z,8.27
2022-09-14T22:09:28.498Z,6.53
2022-09-14T22:11:57.981Z,6.38
2022-09-14T22:14:28.450Z,3.67
2022-09-14T22:16:57.351Z,6.95
2022-09-14T22:19:28.515Z,7.25
2022-09-14T22:21:57.349Z,5.68
2022-09-14T22:24:28.210Z,7.53
2022-09-14T22:29:26.388Z,5.15
2022-09-14T22:31:55.483Z,4.25
2022-09-14T22:34:24.687Z,7.20
2022-09-14T22:36:54.726Z,4.78
2022-09-14T22:39:23.440Z,7.05
2022-09-14T22:41:52.195Z,5.60
2022-09-14T22:44:20.676Z,6.10
2022-09-14T22:46:49.302Z,6.10
2022-09-14T22:49:17.938Z,5.63
2022-09-14T22:51:47.636Z,6.32
2022-09-14T22:54:18.376Z,6.80
2022-09-14T22:56:46.929Z,5.50
2022-09-14T22:59:15.477Z,6.40
2022-09-14T23:01:44.289Z,6.35
2022-09-14T23:04:14.264Z,6.22
2022-09-14T23:06:44.919Z,6.35
2022-09-14T23:09:16.345Z,5.95
2022-09-14T23:11:47.224Z,8.27
2022-09-14T23:16:45.904Z,9.90
2022-09-14T23:19:17.321Z,6.10
2022-09-14T23:21:46.723Z,8.82
2022-09-14T23:24:16.003Z,8.55
2022-09-14T23:26:44.836Z,8.88
2022-09-14T23:29:17.212Z,10.88
2022-09-14T23:31:46.353Z,9.05
2022-09-14T23:34:15.363Z,8.48
2022-09-14T23:36:44.013Z,8.82
2022-09-14T23:39:12.615Z,8.75
2022-09-14T23:41:41.202Z,7.50
2022-09-14T23:44:11.018Z,11.10
2022-09-14T23:46:41.269Z,9.05
2022-09-14T23:49:12.513Z,8.07
2022-09-14T23:51:42.286Z,9.48
2022-09-14T23:54:11.790Z,9.10
2022-09-14T23:56:40.297Z,10.20
2022-09-14T23:59:08.910Z,10.18
